Time;durP1;ratioP1;P1;durP2;ratioP2;P2;SDS_P1;SDS_P2;PMS_P1;PMS_P2;Temp;Humidity;BMP_temperature;BMP_pressure;BME280_temperature;BME280_humidity;BME280_pressure;Samples;Min_cycle;Max_cycle;Signal;HPM_P1;HPM_P2
2022/09/27 05:02:49;;;;;;;6.97;1.10;;;10.20;99.90;;;;;;6196431;23;19927;-76
2022/09/27 05:05:50;;;;;;;5.25;0.88;;;10.20;99.90;;;;;;6245538;23;20066;-76
2022/09/27 05:08:16;;;;;;;4.55;1.13;;;10.20;99.90;;;;;;6255053;23;20011;-76
2022/09/27 05:11:05;;;;;;;3.33;1.27;;;10.20;99.90;;;;;;6253832;23;20020;-74
2022/09/27 05:13:31;;;;;;;5.40;1.30;;;10.20;99.90;;;;;;6229167;23;20108;-76
2022/09/27 05:16:04;;;;;;;4.57;1.00;;;10.20;99.90;;;;;;6253222;23;20008;-77
2022/09/27 05:18:50;;;;;;;5.00;1.00;;;10.20;99.90;;;;;;6238472;23;20015;-76
2022/09/27 05:21:35;;;;;;;3.30;1.10;;;10.20;99.90;;;;;;6259894;23;20019;-78
2022/09/27 05:24:00;;;;;;;4.10;1.00;;;10.20;99.90;;;;;;6258111;23;20004;-76
2022/09/27 05:26:26;;;;;;;3.42;1.00;;;10.10;99.90;;;;;;6260521;23;20015;-74
2022/09/27 05:28:52;;;;;;;5.80;1.27;;;10.10;99.90;;;;;;6257142;23;20003;-74
2022/09/27 05:31:18;;;;;;;3.03;1.10;;;10.10;99.90;;;;;;6262216;23;20056;-73
2022/09/27 05:33:44;;;;;;;6.85;1.38;;;10.00;99.90;;;;;;6261678;23;20004;-75
2022/09/27 05:36:28;;;;;;;5.75;1.35;;;10.00;99.90;;;;;;6231906;23;20050;-75
2022/09/27 05:38:53;;;;;;;4.50;1.02;;;10.00;99.90;;;;;;6254238;23;20004;-74
2022/09/27 05:41:21;;;;;;;4.93;1.17;;;10.10;99.90;;;;;;6253317;23;20032;-75
2022/09/27 05:43:47;;;;;;;3.00;1.02;;;10.10;99.90;;;;;;6252648;23;20000;-75
2022/09/27 05:46:13;;;;;;;5.35;1.30;;;10.10;99.90;;;;;;6253115;23;20004;-74
2022/09/27 05:48:41;;;;;;;4.03;1.33;;;10.10;99.90;;;;;;6253120;23;20031;-75
2022/09/27 05:51:07;;;;;;;3.00;1.00;;;10.10;99.90;;;;;;6252791;23;20127;-75
2022/09/27 05:53:36;;;;;;;3.85;1.55;;;10.10;99.90;;;;;;6253283;23;20004;-75
2022/09/27 05:56:05;;;;;;;3.58;1.00;;;10.10;99.90;;;;;;6252176;23;19996;-75
2022/09/27 05:58:53;;;;;;;3.75;0.85;;;10.20;99.90;;;;;;6253535;23;20028;-78
2022/09/27 06:01:19;;;;;;;3.58;0.80;;;10.20;99.90;;;;;;6254726;22;20000;-75
2022/09/27 06:04:04;;;;;;;4.03;0.95;;;10.30;99.90;;;;;;6284702;22;20026;-74
2022/09/27 06:07:05;;;;;;;2.15;0.63;;;10.30;99.90;;;;;;6269569;22;20013;-74
2022/09/27 06:09:31;;;;;;;2.38;0.70;;;10.30;99.90;;;;;;6285337;22;20312;-74
2022/09/27 06:11:57;;;;;;;5.40;0.90;;;10.30;99.90;;;;;;6283247;22;20004;-74
2022/09/27 06:14:23;;;;;;;2.63;0.70;;;10.40;99.90;;;;;;6258038;22;20010;-74
2022/09/27 06:17:12;;;;;;;3.13;0.88;;;10.30;99.90;;;;;;6284106;22;20007;-75
2022/09/27 06:19:42;;;;;;;2.65;0.60;;;10.20;99.90;;;;;;6258147;22;20008;-75
2022/09/27 06:22:08;;;;;;;6.07;0.98;;;10.20;99.90;;;;;;6282696;22;20244;-75
2022/09/27 06:24:56;;;;;;;3.60;0.82;;;10.30;99.90;;;;;;6257519;22;20000;-75
2022/09/27 06:27:25;;;;;;;3.80;0.93;;;10.30;99.90;;;;;;6257238;22;20046;-75
2022/09/27 06:30:03;;;;;;;5.18;0.70;;;10.30;99.90;;;;;;6258840;22;20008;-75
2022/09/27 06:32:59;;;;;;;5.15;0.82;;;10.40;99.90;;;;;;6282679;22;20093;-75
2022/09/27 06:35:30;;;;;;;2.17;0.70;;;10.50;99.90;;;;;;6258551;22;20007;-76
2022/09/27 06:37:57;;;;;;;3.05;0.80;;;10.60;99.90;;;;;;6257458;22;20044;-75
2022/09/27 06:40:25;;;;;;;2.38;0.50;;;10.70;99.90;;;;;;6258938;22;20301;-75
2022/09/27 06:43:09;;;;;;;2.25;0.60;;;10.70;99.90;;;;;;6262185;22;20015;-75
2022/09/27 06:45:53;;;;;;;0.70;0.32;;;10.90;99.90;;;;;;6294743;22;20038;-75
2022/09/27 06:48:38;;;;;;;2.72;0.70;;;11.00;99.90;;;;;;6285343;22;20114;-74
2022/09/27 06:51:12;;;;;;;3.28;0.45;;;11.10;99.90;;;;;;6284914;22;20008;-77
2022/09/27 06:53:47;;;;;;;3.72;0.80;;;11.10;99.90;;;;;;6283587;22;20049;-83
2022/09/27 06:56:13;;;;;;;2.38;0.43;;;11.00;99.90;;;;;;6283012;22;20329;-79
2022/09/27 07:01:44;;;;;;;0.90;0.20;;;11.00;99.90;;;;;;6284599;22;20297;-77
2022/09/27 07:04:29;;;;;;;0.93;0.40;;;11.00;99.90;;;;;;6261953;22;20061;-76
2022/09/27 07:07:22;;;;;;;1.40;0.40;;;11.00;99.90;;;;;;6257396;22;19999;-77
2022/09/27 07:09:48;;;;;;;0.85;0.35;;;11.00;99.90;;;;;;6284152;22;20012;-78
2022/09/27 07:12:21;;;;;;;1.30;0.30;;;11.00;99.90;;;;;;6282956;22;20236;-77
2022/09/27 07:14:47;;;;;;;0.95;0.25;;;11.00;99.90;;;;;;6233011;22;20011;-77
2022/09/27 07:17:15;;;;;;;0.60;0.20;;;11.00;99.90;;;;;;6257420;22;20282;-77
2022/09/27 07:19:46;;;;;;;1.35;0.30;;;11.00;99.90;;;;;;6284219;22;20071;-77
2022/09/27 07:22:12;;;;;;;0.75;0.20;;;11.10;99.90;;;;;;6257564;22;20015;-77
2022/09/27 07:24:40;;;;;;;1.07;0.30;;;11.10;99.90;;;;;;6283059;22;20202;-78
2022/09/27 07:27:06;;;;;;;2.50;0.40;;;11.00;99.90;;;;;;6257819;22;20460;-75
2022/09/27 07:29:32;;;;;;;3.25;0.30;;;11.20;99.90;;;;;;6283147;22;20066;-78
2022/09/27 07:31:58;;;;;;;1.40;0.28;;;11.20;99.90;;;;;;6282937;22;19991;-76
2022/09/27 07:34:26;;;;;;;1.77;0.40;;;11.30;99.90;;;;;;6258431;22;20297;-77
2022/09/27 07:36:57;;;;;;;2.00;0.43;;;11.30;99.90;;;;;;6258165;22;20151;-77
2022/09/27 07:39:23;;;;;;;0.52;0.20;;;11.20;99.90;;;;;;6258152;22;20012;-77
2022/09/27 07:41:48;;;;;;;1.25;0.20;;;11.30;99.90;;;;;;6283504;22;20225;-77
2022/09/27 07:44:15;;;;;;;0.43;0.10;;;11.30;99.90;;;;;;6283815;22;20130;-77
2022/09/27 07:47:07;;;;;;;1.17;0.40;;;11.20;99.90;;;;;;6272607;22;20015;-76
2022/09/27 07:49:58;;;;;;;0.70;0.30;;;11.20;99.90;;;;;;6283904;22;20007;-77
2022/09/27 07:52:50;;;;;;;1.80;0.22;;;11.20;99.90;;;;;;6260296;22;20008;-76
2022/09/27 07:55:40;;;;;;;0.60;0.20;;;11.10;99.90;;;;;;6284241;22;20109;-78
2022/09/27 07:58:16;;;;;;;1.38;0.28;;;11.10;99.90;;;;;;6257308;22;20015;-78
2022/09/27 08:00:42;;;;;;;2.22;0.40;;;11.10;99.90;;;;;;6283151;22;20006;-77
2022/09/27 08:03:16;;;;;;;0.43;0.20;;;11.20;99.90;;;;;;6256777;22;20345;-75
2022/09/27 08:05:46;;;;;;;1.80;0.45;;;11.40;99.90;;;;;;6257546;22;20373;-77
2022/09/27 08:08:12;;;;;;;1.55;0.30;;;11.80;99.90;;;;;;6256587;22;20007;-77
2022/09/27 08:10:41;;;;;;;1.38;0.40;;;12.10;99.90;;;;;;6231055;22;20024;-76
2022/09/27 08:13:08;;;;;;;1.52;0.40;;;12.50;99.90;;;;;;6230955;22;20201;-78
2022/09/27 08:15:37;;;;;;;1.52;0.30;;;12.60;99.90;;;;;;6229294;22;20000;-74
2022/09/27 08:18:05;;;;;;;0.75;0.30;;;12.50;99.90;;;;;;6193531;22;20007;-77
2022/09/27 08:20:49;;;;;;;1.27;0.30;;;12.40;99.90;;;;;;6283831;22;20077;-79
2022/09/27 08:23:53;;;;;;;1.40;0.30;;;12.30;99.90;;;;;;6190236;23;20017;-74
2022/09/27 08:26:28;;;;;;;1.23;0.30;;;12.30;99.90;;;;;;6189117;23;20005;-75
2022/09/27 08:29:05;;;;;;;2.38;0.30;;;12.20;99.90;;;;;;6219633;22;20400;-75
2022/09/27 08:31:36;;;;;;;1.08;0.30;;;12.00;99.90;;;;;;6256505;22;20071;-76
2022/09/27 08:34:02;;;;;;;2.58;0.30;;;11.90;99.90;;;;;;6282879;22;19996;-74
2022/09/27 08:36:29;;;;;;;0.40;0.20;;;12.00;99.90;;;;;;6283530;22;20003;-74
2022/09/27 08:38:57;;;;;;;2.22;0.20;;;12.20;99.90;;;;;;6257263;22;20166;-74
2022/09/27 08:41:58;;;;;;;0.65;0.20;;;12.60;99.90;;;;;;6257055;22;20483;-75
2022/09/27 08:44:52;;;;;;;0.65;0.22;;;13.00;99.90;;;;;;6257162;22;20061;-75
2022/09/27 08:47:39;;;;;;;1.77;0.35;;;13.20;99.90;;;;;;6256247;22;19999;-76
2022/09/27 08:50:25;;;;;;;1.75;0.22;;;13.10;99.90;;;;;;6281686;22;20008;-74
2022/09/27 08:52:54;;;;;;;1.33;0.30;;;12.90;99.90;;;;;;6283753;22;19995;-73
2022/09/27 08:55:29;;;;;;;0.65;0.20;;;12.90;99.90;;;;;;6281807;22;20011;-73
2022/09/27 08:57:57;;;;;;;1.75;0.30;;;13.10;99.90;;;;;;6281809;22;20281;-72
2022/09/27 09:00:28;;;;;;;0.93;0.20;;;12.90;99.90;;;;;;6256421;22;19999;-73
2022/09/27 09:02:56;;;;;;;1.05;0.40;;;13.00;99.90;;;;;;6255205;22;20019;-72
2022/09/27 09:05:26;;;;;;;2.35;0.45;;;12.90;99.90;;;;;;6255978;22;20053;-73
2022/09/27 09:08:09;;;;;;;0.82;0.30;;;13.00;99.90;;;;;;6256576;22;20035;-74
2022/09/27 09:14:21;;;;;;;1.40;0.30;;;12.70;99.90;;;;;;6256600;22;20011;-74
2022/09/27 09:17:06;;;;;;;1.33;0.30;;;12.60;99.90;;;;;;6255043;22;20075;-74
2022/09/27 09:19:58;;;;;;;1.33;0.20;;;12.60;99.90;;;;;;6281565;22;20291;-73
2022/09/27 09:22:44;;;;;;;0.82;0.20;;;12.50;99.90;;;;;;6255868;22;20062;-73
2022/09/27 09:25:28;;;;;;;1.60;0.30;;;12.40;99.90;;;;;;6281187;22;20031;-73
2022/09/27 09:28:41;;;;;;;1.20;0.20;;;12.50;99.90;;;;;;6255983;22;20011;-76
2022/09/27 09:31:25;;;;;;;0.65;0.20;;;12.50;99.90;;;;;;6268201;22;20006;-77
2022/09/27 09:33:57;;;;;;;1.80;0.30;;;12.50;99.90;;;;;;6282351;22;20274;-73
2022/09/27 09:36:40;;;;;;;1.33;0.28;;;12.80;99.90;;;;;;6255865;22;20003;-73
2022/09/27 09:39:09;;;;;;;1.13;0.22;;;12.70;99.90;;;;;;6256571;22;20004;-73
2022/09/27 09:42:00;;;;;;;1.85;0.50;;;12.80;99.90;;;;;;6258620;22;20004;-74
2022/09/27 09:44:40;;;;;;;1.10;0.35;;;12.90;99.90;;;;;;6256578;22;20063;-73
2022/09/27 09:47:36;;;;;;;1.42;0.30;;;13.00;99.90;;;;;;6255688;22;20260;-73
2022/09/27 09:50:18;;;;;;;2.50;0.50;;;13.00;99.90;;;;;;6237658;22;20016;-75
2022/09/27 09:52:53;;;;;;;2.25;0.50;;;13.00;99.90;;;;;;6256383;22;20000;-75
2022/09/27 09:55:22;;;;;;;2.00;0.40;;;13.00;99.40;;;;;;6255916;22;20246;-73
2022/09/27 09:58:22;;;;;;;1.65;0.50;;;13.20;99.10;;;;;;6283462;22;19999;-75
2022/09/27 10:00:55;;;;;;;2.35;0.63;;;13.30;98.70;;;;;;6256054;22;19999;-74
2022/09/27 10:03:21;;;;;;;3.45;0.68;;;13.30;98.10;;;;;;6225687;23;20016;-74
2022/09/27 10:05:48;;;;;;;2.00;0.40;;;13.40;98.70;;;;;;6226085;23;20377;-73
2022/09/27 10:08:21;;;;;;;1.55;0.32;;;13.60;97.60;;;;;;6254791;23;20027;-73
2022/09/27 10:10:53;;;;;;;1.50;0.40;;;13.60;97.40;;;;;;6260298;23;20000;-73
2022/09/27 10:13:35;;;;;;;2.50;0.60;;;13.60;97.10;;;;;;6230444;23;20011;-74
2022/09/27 10:16:07;;;;;;;3.17;0.60;;;13.90;97.50;;;;;;6232426;23;20011;-73
2022/09/27 10:18:37;;;;;;;2.05;0.50;;;14.40;96.00;;;;;;6251198;23;20015;-75
2022/09/27 10:21:10;;;;;;;2.25;0.50;;;14.80;94.90;;;;;;6250921;23;20063;-74
2022/09/27 10:24:12;;;;;;;2.17;0.52;;;15.10;93.50;;;;;;6251213;23;20051;-74
2022/09/27 10:26:59;;;;;;;1.80;0.50;;;14.90;93.20;;;;;;6252737;23;20015;-74
2022/09/27 10:29:31;;;;;;;4.50;0.70;;;14.80;94.30;;;;;;6251997;23;20016;-74
2022/09/27 10:32:00;;;;;;;1.92;0.68;;;14.70;93.50;;;;;;6251125;23;20008;-73
2022/09/27 10:34:41;;;;;;;2.47;0.50;;;14.40;93.60;;;;;;6226120;23;20011;-77
2022/09/27 10:37:16;;;;;;;1.20;0.40;;;14.00;94.40;;;;;;6199937;23;20282;-75
2022/09/27 10:40:01;;;;;;;2.55;0.65;;;13.60;95.20;;;;;;6252633;23;20197;-72
2022/09/27 10:42:32;;;;;;;1.98;0.43;;;13.40;95.50;;;;;;6252354;23;20325;-76
2022/09/27 10:45:29;;;;;;;2.50;0.47;;;13.40;95.90;;;;;;6225743;23;20012;-75
2022/09/27 10:48:24;;;;;;;4.05;0.70;;;13.80;95.70;;;;;;6239783;23;20020;-72
2022/09/27 10:51:01;;;;;;;1.25;0.38;;;14.00;95.40;;;;;;6225684;23;20012;-74
2022/09/27 10:53:36;;;;;;;2.13;0.47;;;14.40;94.60;;;;;;6223767;23;20317;-73
2022/09/27 10:56:21;;;;;;;4.93;1.08;;;14.70;94.60;;;;;;6225486;23;20028;-74
2022/09/27 10:58:47;;;;;;;2.05;0.55;;;15.10;93.70;;;;;;6250565;23;20004;-76
2022/09/27 11:01:14;;;;;;;1.98;0.35;;;15.40;93.60;;;;;;6225287;23;20011;-74
2022/09/27 11:03:59;;;;;;;1.13;0.35;;;15.50;92.00;;;;;;6251873;23;20055;-76
2022/09/27 11:06:25;;;;;;;1.70;0.60;;;15.30;92.20;;;;;;6251959;23;20031;-75
2022/09/27 11:08:55;;;;;;;4.85;0.50;;;15.30;92.30;;;;;;6225245;23;20214;-74
2022/09/27 11:11:24;;;;;;;1.42;0.40;;;15.10;92.60;;;;;;6250259;23;20087;-74
2022/09/27 11:14:06;;;;;;;2.05;0.43;;;14.80;93.20;;;;;;6251131;23;20004;-73
2022/09/27 11:16:59;;;;;;;1.30;0.40;;;14.80;93.10;;;;;;6250765;23;20020;-76
2022/09/27 11:20:03;;;;;;;2.35;0.47;;;14.90;93.90;;;;;;6250379;23;20016;-75
2022/09/27 11:22:56;;;;;;;2.50;0.60;;;15.00;92.60;;;;;;6227437;23;20027;-74
2022/09/27 11:25:47;;;;;;;3.08;0.52;;;15.00;92.10;;;;;;6223288;23;20043;-73
2022/09/27 11:28:48;;;;;;;1.85;0.50;;;15.00;92.50;;;;;;6225832;23;20073;-72
2022/09/27 11:32:11;;;;;;;1.52;0.30;;;15.10;91.10;;;;;;6251792;23;20289;-72
2022/09/27 11:35:15;;;;;;;3.00;0.40;;;14.90;91.70;;;;;;6226970;23;20004;-72
2022/09/27 11:37:52;;;;;;;1.88;0.52;;;14.70;91.50;;;;;;6253577;23;20316;-74
2022/09/27 11:40:26;;;;;;;1.90;0.50;;;14.90;92.10;;;;;;6226927;23;20004;-71
2022/09/27 11:43:05;;;;;;;1.15;0.20;;;15.00;91.50;;;;;;6227316;23;20008;-74
2022/09/27 11:45:38;;;;;;;2.72;0.30;;;14.70;91.30;;;;;;6227047;23;20043;-71
2022/09/27 11:48:06;;;;;;;2.95;0.65;;;14.70;91.70;;;;;;6252796;23;20008;-72
2022/09/27 11:51:06;;;;;;;1.08;0.28;;;14.80;91.90;;;;;;6226353;23;20071;-70
2022/09/27 11:53:41;;;;;;;0.50;0.20;;;14.70;92.00;;;;;;6226960;23;20004;-72
2022/09/27 11:56:38;;;;;;;1.00;0.20;;;14.60;92.10;;;;;;6227176;23;20004;-71
2022/09/27 11:59:32;;;;;;;0.77;0.20;;;14.50;92.40;;;;;;6251244;23;20171;-72
2022/09/27 12:02:40;;;;;;;2.53;0.30;;;14.40;92.90;;;;;;6228609;23;20030;-73
2022/09/27 12:05:35;;;;;;;2.05;0.30;;;14.30;93.00;;;;;;6225283;23;20000;-74
2022/09/27 12:08:25;;;;;;;0.70;0.20;;;14.30;93.40;;;;;;6224989;23;20405;-72
2022/09/27 12:11:29;;;;;;;0.20;0.05;;;14.10;93.80;;;;;;6251970;23;20308;-73
2022/09/27 12:14:09;;;;;;;0.85;0.08;;;13.40;96.90;;;;;;6226551;23;20008;-73
2022/09/27 12:16:38;;;;;;;0.95;0.20;;;12.50;97.40;;;;;;6226424;23;20225;-72
2022/09/27 12:19:19;;;;;;;1.15;0.10;;;12.10;99.40;;;;;;6252590;23;20015;-73
2022/09/27 12:22:03;;;;;;;1.00;0.10;;;11.80;99.90;;;;;;6226046;23;20008;-71
2022/09/27 12:24:29;;;;;;;1.52;0.20;;;11.40;99.90;;;;;;6225931;23;20008;-73
2022/09/27 12:27:13;;;;;;;1.75;0.30;;;11.00;99.90;;;;;;6227222;23;20008;-72
2022/09/27 12:29:44;;;;;;;0.47;0.20;;;10.70;99.90;;;;;;6227072;23;20096;-73
2022/09/27 12:32:13;;;;;;;1.23;0.45;;;10.30;99.90;;;;;;6226192;23;20011;-72
2022/09/27 12:34:58;;;;;;;2.08;0.40;;;10.00;99.90;;;;;;6226422;23;20019;-72
2022/09/27 12:37:27;;;;;;;3.03;0.30;;;10.00;99.90;;;;;;6226159;23;20066;-73
2022/09/27 12:40:00;;;;;;;1.83;0.30;;;10.30;99.90;;;;;;6226685;23;20146;-72
2022/09/27 12:42:48;;;;;;;2.13;0.38;;;10.50;99.90;;;;;;6226932;23;20004;-74
2022/09/27 12:45:46;;;;;;;1.08;0.13;;;10.90;99.90;;;;;;6226399;23;20008;-71
2022/09/27 12:48:40;;;;;;;2.28;0.28;;;11.10;99.90;;;;;;6226271;23;20012;-73
2022/09/27 12:51:12;;;;;;;0.35;0.20;;;11.30;99.90;;;;;;6246473;23;20082;-73
2022/09/27 12:54:18;;;;;;;1.00;0.20;;;11.60;99.90;;;;;;6226731;23;20035;-71
2022/09/27 12:57:07;;;;;;;1.13;0.50;;;11.80;99.90;;;;;;6121995;23;20006;-72
2022/09/27 12:59:54;;;;;;;1.40;0.25;;;12.20;99.90;;;;;;6200847;23;20054;-72
2022/09/27 13:02:51;;;;;;;2.38;0.30;;;12.90;99.90;;;;;;6233528;23;20018;-74
2022/09/27 13:06:00;;;;;;;0.82;0.13;;;14.00;99.90;;;;;;6224232;23;20004;-71
2022/09/27 13:08:42;;;;;;;1.38;0.20;;;15.00;99.90;;;;;;6145343;23;20019;-73
2022/09/27 13:11:43;;;;;;;0.40;0.10;;;16.40;99.90;;;;;;6226071;23;20172;-73
2022/09/27 13:14:21;;;;;;;2.47;0.20;;;16.70;99.90;;;;;;6252794;23;20004;-74
2022/09/27 13:16:53;;;;;;;0.75;0.22;;;16.80;99.50;;;;;;6226557;23;20062;-72
2022/09/27 13:19:44;;;;;;;0.90;0.20;;;16.30;97.80;;;;;;6225709;23;20000;-73
2022/09/27 13:22:32;;;;;;;1.63;0.50;;;15.60;98.70;;;;;;6238440;23;20003;-73
2022/09/27 13:25:53;;;;;;;1.55;0.20;;;14.90;99.90;;;;;;6224720;23;20010;-72
2022/09/27 13:28:50;;;;;;;2.58;0.32;;;14.40;99.90;;;;;;6225798;23;20012;-72
2022/09/27 13:31:53;;;;;;;2.38;0.40;;;13.90;99.90;;;;;;6225523;23;20012;-71
2022/09/27 13:35:01;;;;;;;1.48;0.20;;;13.30;99.90;;;;;;6200357;23;20016;-70
2022/09/27 13:38:02;;;;;;;1.05;0.32;;;12.60;99.90;;;;;;6103508;23;20062;-79
2022/09/27 13:40:45;;;;;;;3.05;0.52;;;12.00;99.90;;;;;;6225768;23;20175;-72
2022/09/27 13:44:04;;;;;;;2.88;0.50;;;11.80;99.90;;;;;;6204165;23;20008;-74
2022/09/27 13:47:03;;;;;;;1.65;0.60;;;11.70;99.90;;;;;;6226365;23;20007;-72
2022/09/27 13:49:37;;;;;;;1.00;0.35;;;11.80;99.90;;;;;;6226013;23;20366;-74
2022/09/27 13:52:22;;;;;;;1.23;0.45;;;11.90;99.90;;;;;;6225300;23;20347;-76
2022/09/27 13:55:56;;;;;;;1.65;0.30;;;12.00;99.90;;;;;;6226094;23;20314;-71
2022/09/27 13:59:10;;;;;;;1.33;0.20;;;11.90;99.90;;;;;;6101122;23;20010;-73
2022/09/27 14:01:58;;;;;;;1.65;0.28;;;11.70;99.90;;;;;;6231816;22;20236;-76
2022/09/27 14:04:47;;;;;;;1.63;0.35;;;11.80;99.90;;;;;;6256535;22;20007;-75
2022/09/27 14:07:21;;;;;;;1.20;0.40;;;11.80;99.90;;;;;;6255570;22;20010;-73
2022/09/27 14:09:59;;;;;;;2.35;0.40;;;11.70;99.90;;;;;;6254129;22;20312;-75
2022/09/27 14:12:38;;;;;;;2.25;0.50;;;11.50;99.90;;;;;;6256910;22;20004;-75
2022/09/27 14:15:13;;;;;;;2.80;0.50;;;11.30;99.90;;;;;;6256341;22;20003;-75
2022/09/27 14:17:45;;;;;;;1.52;0.40;;;11.20;99.90;;;;;;6257014;22;20063;-75
2022/09/27 14:20:31;;;;;;;1.95;0.50;;;10.90;99.90;;;;;;6257733;22;20004;-76
2022/09/27 14:22:58;;;;;;;3.22;0.60;;;10.80;99.90;;;;;;6257631;22;20219;-76
2022/09/27 14:25:29;;;;;;;2.15;0.50;;;10.80;99.90;;;;;;6257370;22;20285;-77
2022/09/27 14:27:57;;;;;;;2.42;0.60;;;10.60;99.90;;;;;;6284458;22;20010;-75
2022/09/27 14:30:29;;;;;;;2.38;0.73;;;10.60;99.90;;;;;;6282996;22;20003;-76
2022/09/27 14:33:28;;;;;;;1.85;0.40;;;10.50;99.90;;;;;;6283367;22;20015;-75
2022/09/27 14:38:43;;;;;;;3.15;1.10;;;10.50;99.90;;;;;;6256341;22;20008;-75
2022/09/27 14:41:19;;;;;;;2.95;0.60;;;10.70;99.90;;;;;;6232461;22;20071;-77
2022/09/27 14:43:49;;;;;;;1.92;0.68;;;11.30;99.90;;;;;;6284923;22;20010;-78
2022/09/27 14:46:31;;;;;;;1.35;0.60;;;11.90;99.90;;;;;;6282913;22;20011;-75
2022/09/27 14:48:58;;;;;;;2.13;0.50;;;12.20;99.90;;;;;;6256262;22;20007;-76
2022/09/27 14:51:30;;;;;;;1.95;0.50;;;12.40;99.90;;;;;;6282804;22;20012;-75
2022/09/27 14:54:02;;;;;;;1.25;0.38;;;12.50;99.90;;;;;;6283372;22;20177;-74
2022/09/27 14:56:37;;;;;;;1.40;0.43;;;12.60;99.90;;;;;;6283627;22;20010;-74
2022/09/27 14:59:29;;;;;;;1.60;0.50;;;12.40;99.90;;;;;;6285608;22;20003;-74
2022/09/27 15:01:59;;;;;;;3.35;0.93;;;12.40;99.90;;;;;;6285452;22;20012;-74
2022/09/27 15:04:29;;;;;;;2.28;0.50;;;12.60;99.90;;;;;;6285834;22;20015;-75
2022/09/27 15:06:55;;;;;;;1.98;0.40;;;13.80;99.90;;;;;;6286011;22;20008;-75
2022/09/27 15:09:22;;;;;;;6.00;3.83;;;16.90;99.90;;;;;;6285225;22;20046;-74
2022/09/27 15:11:53;;;;;;;7.85;6.05;;;19.30;99.20;;;;;;6285852;22;20008;-75
2022/09/27 15:14:21;;;;;;;2.90;1.10;;;20.90;93.50;;;;;;6285239;22;20055;-75
2022/09/27 15:16:48;;;;;;;4.85;2.92;;;19.80;92.50;;;;;;6285647;22;19999;-77
2022/09/27 15:19:34;;;;;;;2.45;0.88;;;18.90;93.60;;;;;;6287257;22;20011;-76
2022/09/27 15:22:30;;;;;;;3.83;1.00;;;17.90;95.10;;;;;;6289392;22;20010;-73
2022/09/27 15:25:04;;;;;;;2.30;0.50;;;16.70;96.90;;;;;;6287640;22;20027;-73
2022/09/27 15:27:30;;;;;;;4.38;2.03;;;15.70;99.40;;;;;;6288350;22;20007;-73
2022/09/27 15:29:57;;;;;;;3.80;1.90;;;15.10;99.90;;;;;;6284956;22;20066;-75
2022/09/27 15:32:25;;;;;;;4.07;2.00;;;14.90;99.90;;;;;;6287714;22;20023;-74
2022/09/27 15:34:53;;;;;;;2.35;0.90;;;14.70;99.90;;;;;;6284118;22;19992;-76
2022/09/27 15:37:49;;;;;;;2.00;0.90;;;14.30;99.90;;;;;;6284492;22;20053;-74
2022/09/27 15:40:18;;;;;;;3.13;0.80;;;14.10;99.90;;;;;;6150275;22;20144;-74
2022/09/27 15:43:01;;;;;;;2.22;1.00;;;13.90;99.90;;;;;;6284748;22;19992;-75
2022/09/27 15:45:29;;;;;;;1.77;0.70;;;13.60;99.90;;;;;;6284232;22;20015;-76
2022/09/27 15:48:07;;;;;;;2.55;0.82;;;13.40;99.90;;;;;;6284556;22;20173;-74
2022/09/27 15:50:34;;;;;;;3.30;1.55;;;13.20;99.90;;;;;;6284904;22;20008;-75
2022/09/27 15:53:01;;;;;;;2.17;0.80;;;13.20;99.90;;;;;;6284788;22;20010;-75
2022/09/27 15:55:28;;;;;;;2.85;0.50;;;13.20;99.90;;;;;;6283939;22;20007;-71
2022/09/27 15:58:13;;;;;;;1.98;0.50;;;13.10;99.90;;;;;;6257899;22;20074;-72
2022/09/27 16:00:50;;;;;;;2.05;0.63;;;12.90;99.90;;;;;;6257726;22;19999;-75
2022/09/27 16:03:16;;;;;;;2.15;0.65;;;12.70;99.90;;;;;;6256856;22;20081;-75
2022/09/27 16:05:42;;;;;;;1.30;0.32;;;12.60;99.90;;;;;;6284608;22;20008;-75
2022/09/27 16:08:10;;;;;;;2.80;0.40;;;12.50;99.90;;;;;;6283878;22;20040;-77
2022/09/27 16:10:38;;;;;;;2.58;0.40;;;12.50;99.90;;;;;;6284771;22;20008;-74
2022/09/27 16:13:04;;;;;;;2.03;0.65;;;12.50;99.90;;;;;;6283943;22;20010;-74
2022/09/27 16:15:30;;;;;;;2.78;0.40;;;12.40;99.90;;;;;;6284319;22;20181;-77
2022/09/27 16:17:56;;;;;;;1.27;0.40;;;12.40;98.80;;;;;;6284438;22;20007;-76
2022/09/27 16:20:26;;;;;;;1.65;0.40;;;12.40;99.70;;;;;;6257375;22;20007;-74
2022/09/27 16:22:52;;;;;;;2.20;0.40;;;12.40;99.90;;;;;;6284839;22;20277;-75
2022/09/27 16:25:19;;;;;;;2.08;0.43;;;12.30;99.40;;;;;;6284167;22;20000;-74
2022/09/27 16:27:48;;;;;;;2.38;0.57;;;12.10;99.60;;;;;;6284414;22;20003;-74
2022/09/27 16:30:19;;;;;;;5.88;1.35;;;12.00;99.10;;;;;;6283689;22;20316;-74
2022/09/27 16:32:48;;;;;;;2.35;0.68;;;11.90;99.30;;;;;;6284483;22;20004;-71
2022/09/27 16:35:16;;;;;;;2.55;0.63;;;11.80;99.20;;;;;;6283764;22;20083;-74
2022/09/27 16:37:45;;;;;;;2.42;0.30;;;11.80;98.80;;;;;;6284242;22;20027;-73
2022/09/27 16:40:16;;;;;;;2.65;0.50;;;11.80;99.00;;;;;;6232068;22;20102;-74
2022/09/27 16:42:42;;;;;;;;;;;11.80;99.50;;;;;;6284841;22;20003;-74
2022/09/27 16:45:35;;;;;;;2.42;0.50;;;11.70;99.50;;;;;;6283389;22;19907;-74
2022/09/27 16:48:25;;;;;;;2.97;0.90;;;11.80;99.40;;;;;;6262546;22;20324;-74
2022/09/27 16:53:35;;;;;;;3.08;0.80;;;11.70;99.90;;;;;;6256968;22;20023;-74
2022/09/27 16:56:01;;;;;;;2.45;0.90;;;11.70;99.80;;;;;;6231591;22;20339;-73
2022/09/27 16:58:28;;;;;;;4.00;1.33;;;11.60;99.60;;;;;;6281623;22;19995;-76
2022/09/27 17:00:57;;;;;;;4.03;0.95;;;11.60;99.80;;;;;;6284121;22;20022;-75
2022/09/27 17:03:23;;;;;;;2.38;1.13;;;11.50;99.90;;;;;;6251430;23;20290;-73
2022/09/27 17:05:48;;;;;;;2.05;0.73;;;11.40;99.90;;;;;;6253248;23;20034;-73
2022/09/27 17:08:14;;;;;;;4.03;0.80;;;11.40;99.60;;;;;;6252692;23;20047;-71
2022/09/27 17:10:44;;;;;;;2.45;1.13;;;11.40;99.90;;;;;;6252896;23;20004;-76
2022/09/27 17:13:10;;;;;;;4.45;1.08;;;11.30;99.90;;;;;;6252305;22;19989;-73
2022/09/27 17:15:36;;;;;;;3.10;0.60;;;11.30;99.90;;;;;;6252951;22;20010;-74
2022/09/27 17:18:08;;;;;;;2.90;0.85;;;11.30;99.90;;;;;;6251444;23;20000;-72
2022/09/27 17:20:34;;;;;;;3.33;0.93;;;11.20;99.90;;;;;;6252843;22;20312;-72
2022/09/27 17:23:00;;;;;;;1.58;0.50;;;11.10;99.90;;;;;;6252836;23;20000;-70
2022/09/27 17:25:27;;;;;;;2.38;0.60;;;11.00;99.90;;;;;;6250499;23;20072;-73
2022/09/27 17:27:53;;;;;;;3.58;1.10;;;11.00;99.90;;;;;;6252748;23;20011;-73
2022/09/27 17:30:19;;;;;;;5.05;0.90;;;11.00;99.90;;;;;;6251461;22;20148;-75
2022/09/27 17:32:48;;;;;;;3.53;0.80;;;11.00;99.90;;;;;;6253169;22;19996;-73
2022/09/27 17:35:20;;;;;;;;;;;11.00;99.90;;;;;;6276987;22;20023;-73
2022/09/27 17:38:10;;;;;;;3.97;0.90;;;10.90;99.90;;;;;;6252022;23;20216;-75
2022/09/27 17:40:36;;;;;;;4.68;1.38;;;10.90;99.90;;;;;;6253331;23;20000;-75
2022/09/27 17:43:07;;;;;;;2.73;1.10;;;10.80;99.90;;;;;;6250741;23;20008;-75
2022/09/27 17:45:34;;;;;;;3.50;1.08;;;10.80;99.90;;;;;;6226725;23;20176;-74
2022/09/27 17:50:58;;;;;;;2.38;0.77;;;10.90;99.90;;;;;;6251767;23;20406;-75
2022/09/27 17:53:24;;;;;;;2.03;0.60;;;10.90;99.90;;;;;;6251081;23;20233;-73
2022/09/27 17:55:54;;;;;;;2.85;0.60;;;10.90;99.90;;;;;;6252975;22;20019;-75
2022/09/27 17:58:20;;;;;;;2.40;0.52;;;10.90;99.90;;;;;;6250769;23;20197;-74
2022/09/27 18:00:48;;;;;;;2.88;0.60;;;10.90;99.90;;;;;;6252883;22;20099;-73
2022/09/27 18:03:17;;;;;;;;;;;10.90;99.90;;;;;;6257280;22;20205;-75
2022/09/27 18:05:43;;;;;;;3.63;0.70;;;10.90;99.90;;;;;;6256945;22;20092;-74
2022/09/27 18:08:09;;;;;;;1.60;0.52;;;10.90;99.90;;;;;;6283382;22;20004;-74
2022/09/27 18:10:36;;;;;;;3.33;0.68;;;10.80;99.90;;;;;;6283663;22;19995;-73
2022/09/27 18:13:02;;;;;;;2.63;0.50;;;10.70;99.90;;;;;;6231891;22;20025;-74
2022/09/27 18:15:29;;;;;;;3.40;0.85;;;10.50;99.90;;;;;;6231642;22;19999;-73
2022/09/27 18:17:56;;;;;;;2.00;0.90;;;10.40;99.90;;;;;;6231741;22;20011;-74
2022/09/27 18:20:21;;;;;;;2.28;0.60;;;10.40;99.90;;;;;;6231252;22;20050;-75
2022/09/27 18:22:47;;;;;;;1.42;0.60;;;10.40;99.90;;;;;;6257027;22;19999;-75
2022/09/27 18:25:16;;;;;;;1.88;0.80;;;10.40;99.90;;;;;;6231052;22;20038;-75
2022/09/27 18:27:43;;;;;;;3.20;0.60;;;10.30;99.90;;;;;;6283375;22;19996;-75
2022/09/27 18:30:10;;;;;;;2.83;0.50;;;10.30;99.90;;;;;;6232710;22;20014;-73
2022/09/27 18:33:01;;;;;;;1.60;0.60;;;10.30;99.90;;;;;;6284985;22;20301;-74
2022/09/27 18:35:33;;;;;;;1.48;0.70;;;10.20;99.90;;;;;;6258146;22;20165;-74
2022/09/27 18:37:59;;;;;;;2.67;0.63;;;10.30;99.90;;;;;;6256868;22;20015;-73
2022/09/27 18:40:45;;;;;;;1.73;0.50;;;10.20;99.90;;;;;;6284743;22;20063;-73
2022/09/27 18:43:32;;;;;;;2.85;0.75;;;10.20;99.90;;;;;;6257284;22;20323;-73
2022/09/27 18:46:06;;;;;;;3.50;0.80;;;10.10;99.90;;;;;;6232748;22;20004;-73
2022/09/27 18:51:36;;;;;;;3.45;0.88;;;9.90;99.90;;;;;;6285014;22;20011;-73
2022/09/27 18:54:12;;;;;;;3.13;0.85;;;9.90;99.90;;;;;;6285222;22;20163;-74
2022/09/27 18:56:39;;;;;;;2.40;0.80;;;9.90;99.90;;;;;;6262172;22;20057;-76
2022/09/27 18:59:09;;;;;;;2.58;0.55;;;9.80;99.90;;;;;;6284744;22;20051;-73